Terminal Aerodrome Forecast
Issued by NWS

Home | Current Version | Previous Version | Text Only | Print | Product List | Glossary On
Versions: 1 2 3 4 5 6 7 8 9 10 11 12 13 14
775
FTUS41 KLWX 242320
TAFMTN
TAF
KMTN 242320Z 2500/2524 27007KT P6SM SCT050 SCT200
     FM250300 33005KT P6SM SCT050 SCT200
     FM250900 VRB03KT P6SM FEW050 SCT200
     FM251400 27010G18KT P6SM SCT060
     FM252300 27008KT P6SM FEW250
      AMD NOT SKED 2502/2512=

USA.gov is the U.S. government's official web portal to all federal, state and local government web resources and services.